KRME/RME METAR and TAF weather

Enter ICAO airport designator
Station Type Date Time Source
KRME METAR 2019/10/22 15:53 UTC NOAA

KRME 221553Z 11008KT 10SM -RA BKN031 OVC039 14/08 A2994 RMK AO2 RAB53 SLP138 P0000 T01390078


Station Type Date Time Source
KRME Decoded METAR 2019/10/22 15:53 UTC NOAA

GRIFFISS AIRFIELD, NY, United States (KRME) 43-14N 075-24W
Oct 22, 2019 - 11:53 AM EDT / 2019.10.22 1553 UTC
Wind: from the ESE (110 degrees) at 9 MPH (8 KT):0
Visibility: 10 mile(s):0
Sky conditions: overcast
Weather: light rain
Precipitation last hour: A trace
Temperature: 57.0 F (13.9 C)
Dew Point: 46.0 F (7.8 C)
Relative Humidity: 66%
Pressure (altimeter): 29.94 in. Hg (1013 hPa)
ob: KRME 221553Z 11008KT 10SM -RA BKN031 OVC039 14/08 A2994 RMK AO2 RAB53 SLP138 P0000 T01390078
cycle: 16

Station Type Date Time Source
KRME TAF 2019/10/22 12:36 UTC NOAA

TAF KRME 221133Z 2212/2312 13013KT P6SM FEW070 SCT100 BKN200
FM221900 13015KT P6SM -SHRA BKN022 OVC035
FM222100 13012KT 6SM -RA BR OVC014
FM222300 13008KT 3SM RA BR OVC007
FM230500 VRB03KT P6SM SHRA OVC015
FM231000 25004KT P6SM SCT025 BKN040

Example: see airport list